sensor_id;sensor_type;location;lat;lon;timestamp;temperature;humidity
10812;DHT22;5458;51.496;7.334;2022-09-17T00:01:07;12.90;99.90
10812;DHT22;5458;51.496;7.334;2022-09-17T00:03:34;12.90;99.90
10812;DHT22;5458;51.496;7.334;2022-09-17T00:06:02;12.90;99.90
10812;DHT22;5458;51.496;7.334;2022-09-17T00:08:28;12.90;99.90
10812;DHT22;5458;51.496;7.334;2022-09-17T00:10:54;12.90;99.90
10812;DHT22;5458;51.496;7.334;2022-09-17T00:13:20;12.90;99.90
10812;DHT22;5458;51.496;7.334;2022-09-17T00:15:46;12.90;99.90
10812;DHT22;5458;51.496;7.334;2022-09-17T00:18:13;12.90;99.90
10812;DHT22;5458;51.496;7.334;2022-09-17T00:20:43;12.80;99.90
10812;DHT22;5458;51.496;7.334;2022-09-17T00:23:09;12.90;99.90
10812;DHT22;5458;51.496;7.334;2022-09-17T00:25:39;12.80;99.90
10812;DHT22;5458;51.496;7.334;2022-09-17T00:28:05;12.80;99.90
10812;DHT22;5458;51.496;7.334;2022-09-17T00:30:30;12.80;99.90
10812;DHT22;5458;51.496;7.334;2022-09-17T00:32:56;12.70;99.90
10812;DHT22;5458;51.496;7.334;2022-09-17T00:35:23;12.80;99.90
10812;DHT22;5458;51.496;7.334;2022-09-17T00:37:49;12.80;99.90
10812;DHT22;5458;51.496;7.334;2022-09-17T00:40:14;12.80;99.90
10812;DHT22;5458;51.496;7.334;2022-09-17T00:42:40;12.80;99.90
10812;DHT22;5458;51.496;7.334;2022-09-17T00:45:06;12.70;99.90
10812;DHT22;5458;51.496;7.334;2022-09-17T00:47:37;12.70;99.90
10812;DHT22;5458;51.496;7.334;2022-09-17T00:50:06;12.70;99.90
10812;DHT22;5458;51.496;7.334;2022-09-17T00:52:38;12.60;99.90
10812;DHT22;5458;51.496;7.334;2022-09-17T00:55:20;12.60;99.90
10812;DHT22;5458;51.496;7.334;2022-09-17T00:57:48;12.60;99.90
10812;DHT22;5458;51.496;7.334;2022-09-17T01:00:16;12.60;99.90
10812;DHT22;5458;51.496;7.334;2022-09-17T01:02:42;12.70;99.90
10812;DHT22;5458;51.496;7.334;2022-09-17T01:05:08;12.60;99.90
10812;DHT22;5458;51.496;7.334;2022-09-17T01:07:56;12.70;99.90
10812;DHT22;5458;51.496;7.334;2022-09-17T01:10:44;12.70;99.90
10812;DHT22;5458;51.496;7.334;2022-09-17T01:15:58;12.60;99.90
10812;DHT22;5458;51.496;7.334;2022-09-17T01:26:52;12.50;99.90
10812;DHT22;5458;51.496;7.334;2022-09-17T01:32:43;12.40;99.90
10812;DHT22;5458;51.496;7.334;2022-09-17T01:35:34;12.40;99.90
10812;DHT22;5458;51.496;7.334;2022-09-17T01:43:35;12.20;99.90
10812;DHT22;5458;51.496;7.334;2022-09-17T01:46:52;12.20;99.90
10812;DHT22;5458;51.496;7.334;2022-09-17T01:49:01;12.20;99.90
10812;DHT22;5458;51.496;7.334;2022-09-17T01:51:30;12.20;99.90
10812;DHT22;5458;51.496;7.334;2022-09-17T01:56:57;12.20;99.90
10812;DHT22;5458;51.496;7.334;2022-09-17T01:59:33;12.20;99.90
10812;DHT22;5458;51.496;7.334;2022-09-17T02:02:07;12.20;99.90
10812;DHT22;5458;51.496;7.334;2022-09-17T02:04:40;12.20;99.90
10812;DHT22;5458;51.496;7.334;2022-09-17T02:07:13;12.20;99.90
10812;DHT22;5458;51.496;7.334;2022-09-17T02:10:19;12.20;99.90
10812;DHT22;5458;51.496;7.334;2022-09-17T02:12:41;12.20;99.90
10812;DHT22;5458;51.496;7.334;2022-09-17T02:15:14;12.10;99.90
10812;DHT22;5458;51.496;7.334;2022-09-17T02:17:47;12.10;99.90
10812;DHT22;5458;51.496;7.334;2022-09-17T02:20:14;12.10;99.90
10812;DHT22;5458;51.496;7.334;2022-09-17T02:23:11;12.00;99.90
10812;DHT22;5458;51.496;7.334;2022-09-17T02:25:49;12.00;99.90
10812;DHT22;5458;51.496;7.334;2022-09-17T02:30:57;12.10;99.90
10812;DHT22;5458;51.496;7.334;2022-09-17T02:33:24;12.10;99.90
10812;DHT22;5458;51.496;7.334;2022-09-17T02:35:50;12.10;99.90
10812;DHT22;5458;51.496;7.334;2022-09-17T02:38:27;12.10;99.90
10812;DHT22;5458;51.496;7.334;2022-09-17T02:41:03;12.20;99.90
10812;DHT22;5458;51.496;7.334;2022-09-17T02:43:48;12.20;99.90
10812;DHT22;5458;51.496;7.334;2022-09-17T02:46:26;12.20;99.90
10812;DHT22;5458;51.496;7.334;2022-09-17T02:54:28;12.20;99.90
10812;DHT22;5458;51.496;7.334;2022-09-17T03:02:59;12.20;99.90
10812;DHT22;5458;51.496;7.334;2022-09-17T03:05:29;12.20;99.90
10812;DHT22;5458;51.496;7.334;2022-09-17T03:07:57;12.10;99.90
10812;DHT22;5458;51.496;7.334;2022-09-17T03:10:23;12.20;99.90
10812;DHT22;5458;51.496;7.334;2022-09-17T03:12:49;12.20;99.90
10812;DHT22;5458;51.496;7.334;2022-09-17T03:15:15;12.20;99.90
10812;DHT22;5458;51.496;7.334;2022-09-17T03:17:41;12.20;99.90
10812;DHT22;5458;51.496;7.334;2022-09-17T03:20:07;12.20;99.90
10812;DHT22;5458;51.496;7.334;2022-09-17T03:22:32;12.10;99.90
10812;DHT22;5458;51.496;7.334;2022-09-17T03:24:58;12.20;99.90
10812;DHT22;5458;51.496;7.334;2022-09-17T03:27:24;12.10;99.90
10812;DHT22;5458;51.496;7.334;2022-09-17T03:29:49;12.10;99.90
10812;DHT22;5458;51.496;7.334;2022-09-17T03:32:15;12.10;99.90
10812;DHT22;5458;51.496;7.334;2022-09-17T03:34:40;12.20;99.90
10812;DHT22;5458;51.496;7.334;2022-09-17T03:37:06;12.10;99.90
10812;DHT22;5458;51.496;7.334;2022-09-17T03:39:31;12.00;99.90
10812;DHT22;5458;51.496;7.334;2022-09-17T03:41:57;12.10;99.90
10812;DHT22;5458;51.496;7.334;2022-09-17T03:44:22;12.00;99.90
10812;DHT22;5458;51.496;7.334;2022-09-17T03:46:49;11.90;99.90
10812;DHT22;5458;51.496;7.334;2022-09-17T03:49:14;12.00;99.90
10812;DHT22;5458;51.496;7.334;2022-09-17T03:51:40;12.00;99.90
10812;DHT22;5458;51.496;7.334;2022-09-17T03:54:06;12.00;99.90
10812;DHT22;5458;51.496;7.334;2022-09-17T03:56:31;12.00;99.90
10812;DHT22;5458;51.496;7.334;2022-09-17T03:58:59;12.00;99.90
10812;DHT22;5458;51.496;7.334;2022-09-17T04:01:26;12.00;99.90
10812;DHT22;5458;51.496;7.334;2022-09-17T04:03:52;12.00;99.90
10812;DHT22;5458;51.496;7.334;2022-09-17T04:06:18;12.00;99.90
10812;DHT22;5458;51.496;7.334;2022-09-17T04:08:43;11.90;99.90
10812;DHT22;5458;51.496;7.334;2022-09-17T04:11:09;11.90;99.90
10812;DHT22;5458;51.496;7.334;2022-09-17T04:13:34;11.90;99.90
10812;DHT22;5458;51.496;7.334;2022-09-17T04:16:01;11.90;99.90
10812;DHT22;5458;51.496;7.334;2022-09-17T04:18:27;11.90;99.90
10812;DHT22;5458;51.496;7.334;2022-09-17T04:20:52;11.80;99.90
10812;DHT22;5458;51.496;7.334;2022-09-17T04:23:18;11.80;99.90
10812;DHT22;5458;51.496;7.334;2022-09-17T04:25:43;11.80;99.90
10812;DHT22;5458;51.496;7.334;2022-09-17T04:28:09;11.80;99.90
10812;DHT22;5458;51.496;7.334;2022-09-17T04:30:35;11.80;99.90
10812;DHT22;5458;51.496;7.334;2022-09-17T04:33:01;11.70;99.90
10812;DHT22;5458;51.496;7.334;2022-09-17T04:35:27;11.80;99.90
10812;DHT22;5458;51.496;7.334;2022-09-17T04:37:54;11.70;99.90
10812;DHT22;5458;51.496;7.334;2022-09-17T04:40:21;11.80;99.90
10812;DHT22;5458;51.496;7.334;2022-09-17T04:42:47;11.70;99.90
10812;DHT22;5458;51.496;7.334;2022-09-17T04:45:13;11.70;99.90
10812;DHT22;5458;51.496;7.334;2022-09-17T04:47:39;11.80;99.90
10812;DHT22;5458;51.496;7.334;2022-09-17T04:50:05;11.80;99.90
10812;DHT22;5458;51.496;7.334;2022-09-17T04:52:31;11.80;99.90
10812;DHT22;5458;51.496;7.334;2022-09-17T04:54:56;11.80;99.90
10812;DHT22;5458;51.496;7.334;2022-09-17T04:57:22;11.80;99.90
10812;DHT22;5458;51.496;7.334;2022-09-17T04:59:50;11.80;99.90
10812;DHT22;5458;51.496;7.334;2022-09-17T05:02:15;11.80;99.90
10812;DHT22;5458;51.496;7.334;2022-09-17T05:04:41;11.80;99.90
10812;DHT22;5458;51.496;7.334;2022-09-17T05:07:07;11.80;99.90
10812;DHT22;5458;51.496;7.334;2022-09-17T05:09:32;11.80;99.90
10812;DHT22;5458;51.496;7.334;2022-09-17T05:11:58;11.80;99.90
10812;DHT22;5458;51.496;7.334;2022-09-17T05:14:23;11.90;99.90
10812;DHT22;5458;51.496;7.334;2022-09-17T05:16:49;11.90;99.90
10812;DHT22;5458;51.496;7.334;2022-09-17T05:19:14;11.90;99.90
10812;DHT22;5458;51.496;7.334;2022-09-17T05:21:40;11.90;99.90
10812;DHT22;5458;51.496;7.334;2022-09-17T05:24:06;11.90;99.90
10812;DHT22;5458;51.496;7.334;2022-09-17T05:26:31;12.00;99.90
10812;DHT22;5458;51.496;7.334;2022-09-17T05:28:57;12.00;99.90
10812;DHT22;5458;51.496;7.334;2022-09-17T05:31:23;12.00;99.90
10812;DHT22;5458;51.496;7.334;2022-09-17T05:33:48;12.00;99.90
10812;DHT22;5458;51.496;7.334;2022-09-17T05:36:14;12.00;99.90
10812;DHT22;5458;51.496;7.334;2022-09-17T05:38:39;12.10;99.90
10812;DHT22;5458;51.496;7.334;2022-09-17T05:41:06;12.20;99.90
10812;DHT22;5458;51.496;7.334;2022-09-17T05:43:32;12.20;99.90
10812;DHT22;5458;51.496;7.334;2022-09-17T05:46:01;12.30;99.90
10812;DHT22;5458;51.496;7.334;2022-09-17T05:48:27;12.40;99.90
10812;DHT22;5458;51.496;7.334;2022-09-17T05:50:53;12.50;99.90
10812;DHT22;5458;51.496;7.334;2022-09-17T05:53:19;12.50;99.90
10812;DHT22;5458;51.496;7.334;2022-09-17T05:55:45;12.70;99.90
10812;DHT22;5458;51.496;7.334;2022-09-17T05:58:16;12.80;99.90
10812;DHT22;5458;51.496;7.334;2022-09-17T06:00:43;13.00;99.90
10812;DHT22;5458;51.496;7.334;2022-09-17T06:03:10;13.20;99.90
10812;DHT22;5458;51.496;7.334;2022-09-17T06:05:36;13.30;99.90
10812;DHT22;5458;51.496;7.334;2022-09-17T06:08:02;13.30;99.90
10812;DHT22;5458;51.496;7.334;2022-09-17T06:10:28;13.20;99.90
10812;DHT22;5458;51.496;7.334;2022-09-17T06:12:57;13.20;99.90
10812;DHT22;5458;51.496;7.334;2022-09-17T06:15:23;13.10;99.90
10812;DHT22;5458;51.496;7.334;2022-09-17T06:17:49;13.20;99.90
10812;DHT22;5458;51.496;7.334;2022-09-17T06:20:15;13.50;99.90
10812;DHT22;5458;51.496;7.334;2022-09-17T06:22:41;13.60;99.90
10812;DHT22;5458;51.496;7.334;2022-09-17T06:25:07;13.70;99.90
10812;DHT22;5458;51.496;7.334;2022-09-17T06:27:33;13.70;99.90
10812;DHT22;5458;51.496;7.334;2022-09-17T06:29:59;13.80;99.90
10812;DHT22;5458;51.496;7.334;2022-09-17T06:32:26;13.80;99.90
10812;DHT22;5458;51.496;7.334;2022-09-17T06:34:51;13.70;99.90
10812;DHT22;5458;51.496;7.334;2022-09-17T06:37:18;13.60;99.90
10812;DHT22;5458;51.496;7.334;2022-09-17T06:39:44;13.50;99.90
10812;DHT22;5458;51.496;7.334;2022-09-17T06:42:10;13.30;99.90
10812;DHT22;5458;51.496;7.334;2022-09-17T06:44:36;13.20;99.90
10812;DHT22;5458;51.496;7.334;2022-09-17T06:47:02;13.00;99.90
10812;DHT22;5458;51.496;7.334;2022-09-17T06:49:28;12.90;99.90
10812;DHT22;5458;51.496;7.334;2022-09-17T06:51:55;12.80;99.90
10812;DHT22;5458;51.496;7.334;2022-09-17T06:54:21;12.70;99.90
10812;DHT22;5458;51.496;7.334;2022-09-17T06:56:46;12.70;99.90
10812;DHT22;5458;51.496;7.334;2022-09-17T06:59:12;12.80;99.90
10812;DHT22;5458;51.496;7.334;2022-09-17T07:01:38;13.00;99.90
10812;DHT22;5458;51.496;7.334;2022-09-17T07:04:03;13.40;99.90
10812;DHT22;5458;51.496;7.334;2022-09-17T07:06:29;13.80;99.90
10812;DHT22;5458;51.496;7.334;2022-09-17T07:08:54;14.30;99.90
10812;DHT22;5458;51.496;7.334;2022-09-17T07:11:20;14.60;99.90
10812;DHT22;5458;51.496;7.334;2022-09-17T07:13:46;14.60;99.90
10812;DHT22;5458;51.496;7.334;2022-09-17T07:16:11;14.40;99.90
10812;DHT22;5458;51.496;7.334;2022-09-17T07:18:37;14.20;99.90
10812;DHT22;5458;51.496;7.334;2022-09-17T07:21:04;14.00;99.90
10812;DHT22;5458;51.496;7.334;2022-09-17T07:23:32;13.80;99.90
10812;DHT22;5458;51.496;7.334;2022-09-17T07:26:00;13.80;99.90
10812;DHT22;5458;51.496;7.334;2022-09-17T07:28:26;14.00;99.90
10812;DHT22;5458;51.496;7.334;2022-09-17T07:30:53;14.20;99.90
10812;DHT22;5458;51.496;7.334;2022-09-17T07:33:21;14.30;99.90
10812;DHT22;5458;51.496;7.334;2022-09-17T07:35:54;14.80;99.90
10812;DHT22;5458;51.496;7.334;2022-09-17T07:38:20;15.90;99.90
10812;DHT22;5458;51.496;7.334;2022-09-17T07:41:04;17.30;99.90
10812;DHT22;5458;51.496;7.334;2022-09-17T07:43:32;18.60;99.90
10812;DHT22;5458;51.496;7.334;2022-09-17T07:45:58;19.40;98.90
10812;DHT22;5458;51.496;7.334;2022-09-17T07:48:25;19.50;97.40
10812;DHT22;5458;51.496;7.334;2022-09-17T07:50:51;18.60;97.50
10812;DHT22;5458;51.496;7.334;2022-09-17T07:53:17;18.30;98.40
10812;DHT22;5458;51.496;7.334;2022-09-17T07:55:53;19.30;98.60
10812;DHT22;5458;51.496;7.334;2022-09-17T07:58:20;20.80;95.80
10812;DHT22;5458;51.496;7.334;2022-09-17T08:00:46;21.80;94.20
10812;DHT22;5458;51.496;7.334;2022-09-17T08:03:13;23.40;91.20
10812;DHT22;5458;51.496;7.334;2022-09-17T08:05:38;25.20;87.10
10812;DHT22;5458;51.496;7.334;2022-09-17T08:08:04;27.50;75.50
10812;DHT22;5458;51.496;7.334;2022-09-17T08:10:29;28.10;68.00
10812;DHT22;5458;51.496;7.334;2022-09-17T08:12:56;26.80;68.30
10812;DHT22;5458;51.496;7.334;2022-09-17T08:15:23;25.90;71.10
10812;DHT22;5458;51.496;7.334;2022-09-17T08:17:50;26.70;70.40
10812;DHT22;5458;51.496;7.334;2022-09-17T08:20:16;27.90;63.90
10812;DHT22;5458;51.496;7.334;2022-09-17T08:22:42;28.20;63.80
10812;DHT22;5458;51.496;7.334;2022-09-17T08:25:09;29.10;59.80
10812;DHT22;5458;51.496;7.334;2022-09-17T08:27:35;30.00;57.60
10812;DHT22;5458;51.496;7.334;2022-09-17T08:30:03;30.70;54.60
10812;DHT22;5458;51.496;7.334;2022-09-17T08:32:29;31.70;50.90
10812;DHT22;5458;51.496;7.334;2022-09-17T08:34:55;31.50;49.60
10812;DHT22;5458;51.496;7.334;2022-09-17T08:37:21;30.80;49.70
10812;DHT22;5458;51.496;7.334;2022-09-17T08:39:46;31.00;50.60
10812;DHT22;5458;51.496;7.334;2022-09-17T08:42:23;31.30;48.60
10812;DHT22;5458;51.496;7.334;2022-09-17T08:44:52;30.70;49.00
10812;DHT22;5458;51.496;7.334;2022-09-17T08:47:27;30.70;48.90
10812;DHT22;5458;51.496;7.334;2022-09-17T08:49:58;29.10;50.40
10812;DHT22;5458;51.496;7.334;2022-09-17T08:52:47;27.30;53.80
10812;DHT22;5458;51.496;7.334;2022-09-17T09:04:08;26.30;56.60
10812;DHT22;5458;51.496;7.334;2022-09-17T09:06:43;25.10;57.50
10812;DHT22;5458;51.496;7.334;2022-09-17T09:09:16;23.70;61.90
10812;DHT22;5458;51.496;7.334;2022-09-17T09:11:43;23.00;65.50
10812;DHT22;5458;51.496;7.334;2022-09-17T09:14:26;22.50;66.30
10812;DHT22;5458;51.496;7.334;2022-09-17T09:16:54;21.80;66.70
10812;DHT22;5458;51.496;7.334;2022-09-17T09:19:26;21.10;70.40
10812;DHT22;5458;51.496;7.334;2022-09-17T09:25:12;20.10;74.60
10812;DHT22;5458;51.496;7.334;2022-09-17T09:33:26;19.10;80.60
10812;DHT22;5458;51.496;7.334;2022-09-17T09:35:54;19.10;81.80
10812;DHT22;5458;51.496;7.334;2022-09-17T09:38:32;19.10;79.80
10812;DHT22;5458;51.496;7.334;2022-09-17T09:59:25;18.70;82.30
10812;DHT22;5458;51.496;7.334;2022-09-17T10:01:51;18.60;82.40
10812;DHT22;5458;51.496;7.334;2022-09-17T10:04:25;18.40;80.90
10812;DHT22;5458;51.496;7.334;2022-09-17T10:06:53;18.00;80.60
10812;DHT22;5458;51.496;7.334;2022-09-17T10:09:20;17.80;81.30
10812;DHT22;5458;51.496;7.334;2022-09-17T10:12:16;17.70;82.40
10812;DHT22;5458;51.496;7.334;2022-09-17T10:14:44;17.60;83.90
10812;DHT22;5458;51.496;7.334;2022-09-17T10:17:14;17.70;84.60
10812;DHT22;5458;51.496;7.334;2022-09-17T10:19:40;18.00;84.50
10812;DHT22;5458;51.496;7.334;2022-09-17T10:24:54;18.30;83.50
10812;DHT22;5458;51.496;7.334;2022-09-17T10:27:21;18.20;82.20
10812;DHT22;5458;51.496;7.334;2022-09-17T10:29:50;18.00;82.10
10812;DHT22;5458;51.496;7.334;2022-09-17T10:32:19;18.00;81.20
10812;DHT22;5458;51.496;7.334;2022-09-17T10:37:48;18.00;80.80
10812;DHT22;5458;51.496;7.334;2022-09-17T10:42:43;18.00;82.00
10812;DHT22;5458;51.496;7.334;2022-09-17T10:45:23;18.10;80.80
10812;DHT22;5458;51.496;7.334;2022-09-17T10:47:49;18.10;81.00
10812;DHT22;5458;51.496;7.334;2022-09-17T10:50:34;18.10;79.80
10812;DHT22;5458;51.496;7.334;2022-09-17T10:53:14;18.30;83.90
10812;DHT22;5458;51.496;7.334;2022-09-17T11:09:49;17.00;87.30
10812;DHT22;5458;51.496;7.334;2022-09-17T11:15:05;17.40;89.00
10812;DHT22;5458;51.496;7.334;2022-09-17T11:23:33;17.40;89.90
10812;DHT22;5458;51.496;7.334;2022-09-17T11:26:18;17.20;90.50
10812;DHT22;5458;51.496;7.334;2022-09-17T11:37:49;16.50;90.10
10812;DHT22;5458;51.496;7.334;2022-09-17T11:42:50;16.20;90.90
10812;DHT22;5458;51.496;7.334;2022-09-17T11:45:19;16.20;91.30
10812;DHT22;5458;51.496;7.334;2022-09-17T11:47:59;16.30;91.60
10812;DHT22;5458;51.496;7.334;2022-09-17T11:50:31;16.40;92.00
10812;DHT22;5458;51.496;7.334;2022-09-17T11:55:51;16.90;91.80
10812;DHT22;5458;51.496;7.334;2022-09-17T12:00:53;17.20;91.70
10812;DHT22;5458;51.496;7.334;2022-09-17T12:03:27;17.10;91.60
10812;DHT22;5458;51.496;7.334;2022-09-17T12:05:59;17.10;92.00
10812;DHT22;5458;51.496;7.334;2022-09-17T12:11:12;17.40;91.80
10812;DHT22;5458;51.496;7.334;2022-09-17T12:14:05;17.60;92.10
10812;DHT22;5458;51.496;7.334;2022-09-17T12:16:41;17.60;90.80
10812;DHT22;5458;51.496;7.334;2022-09-17T12:19:40;17.50;90.00
10812;DHT22;5458;51.496;7.334;2022-09-17T12:22:13;17.20;89.70
10812;DHT22;5458;51.496;7.334;2022-09-17T12:24:41;16.80;90.20
10812;DHT22;5458;51.496;7.334;2022-09-17T12:35:46;16.00;96.90
10812;DHT22;5458;51.496;7.334;2022-09-17T12:50:40;15.90;99.90
10812;DHT22;5458;51.496;7.334;2022-09-17T12:53:22;15.90;99.90
10812;DHT22;5458;51.496;7.334;2022-09-17T12:59:10;16.00;99.90
10812;DHT22;5458;51.496;7.334;2022-09-17T13:01:37;16.10;99.90
10812;DHT22;5458;51.496;7.334;2022-09-17T13:12:43;16.20;99.90
10812;DHT22;5458;51.496;7.334;2022-09-17T13:18:47;16.30;99.90
10812;DHT22;5458;51.496;7.334;2022-09-17T13:21:06;16.10;99.90
10812;DHT22;5458;51.496;7.334;2022-09-17T13:23:43;15.90;99.90
10812;DHT22;5458;51.496;7.334;2022-09-17T13:26:11;15.60;99.90
10812;DHT22;5458;51.496;7.334;2022-09-17T13:28:49;15.50;99.90
10812;DHT22;5458;51.496;7.334;2022-09-17T13:31:53;15.60;99.90
10812;DHT22;5458;51.496;7.334;2022-09-17T13:36:54;15.80;99.90
10812;DHT22;5458;51.496;7.334;2022-09-17T13:42:09;16.20;99.90
10812;DHT22;5458;51.496;7.334;2022-09-17T13:44:40;16.20;99.90
10812;DHT22;5458;51.496;7.334;2022-09-17T13:47:32;16.00;99.90
10812;DHT22;5458;51.496;7.334;2022-09-17T13:50:05;15.90;99.90
10812;DHT22;5458;51.496;7.334;2022-09-17T13:57:59;15.60;99.90
10812;DHT22;5458;51.496;7.334;2022-09-17T14:00:50;15.60;99.90
10812;DHT22;5458;51.496;7.334;2022-09-17T14:03:50;15.80;99.90
10812;DHT22;5458;51.496;7.334;2022-09-17T14:08:47;15.80;99.90
10812;DHT22;5458;51.496;7.334;2022-09-17T14:19:32;15.70;99.90
10812;DHT22;5458;51.496;7.334;2022-09-17T14:22:11;15.80;99.90
10812;DHT22;5458;51.496;7.334;2022-09-17T14:24:53;15.80;99.90
10812;DHT22;5458;51.496;7.334;2022-09-17T14:30:11;15.70;99.90
10812;DHT22;5458;51.496;7.334;2022-09-17T14:32:51;15.60;99.90
10812;DHT22;5458;51.496;7.334;2022-09-17T14:38:08;15.60;99.90
10812;DHT22;5458;51.496;7.334;2022-09-17T14:40:44;15.60;99.90
10812;DHT22;5458;51.496;7.334;2022-09-17T14:45:48;15.50;99.90
10812;DHT22;5458;51.496;7.334;2022-09-17T14:48:32;15.60;99.90
10812;DHT22;5458;51.496;7.334;2022-09-17T14:51:16;15.50;99.90
10812;DHT22;5458;51.496;7.334;2022-09-17T14:54:16;15.50;99.90
10812;DHT22;5458;51.496;7.334;2022-09-17T15:02:33;15.60;99.90
10812;DHT22;5458;51.496;7.334;2022-09-17T15:04:59;15.60;99.90
10812;DHT22;5458;51.496;7.334;2022-09-17T15:07:26;15.60;99.90
10812;DHT22;5458;51.496;7.334;2022-09-17T15:09:52;15.70;99.90
10812;DHT22;5458;51.496;7.334;2022-09-17T15:12:27;15.80;99.90
10812;DHT22;5458;51.496;7.334;2022-09-17T15:14:54;15.80;99.90
10812;DHT22;5458;51.496;7.334;2022-09-17T15:17:20;15.80;99.90
10812;DHT22;5458;51.496;7.334;2022-09-17T15:19:49;15.80;99.90
10812;DHT22;5458;51.496;7.334;2022-09-17T15:22:20;15.70;99.90
10812;DHT22;5458;51.496;7.334;2022-09-17T15:25:08;15.60;99.90
10812;DHT22;5458;51.496;7.334;2022-09-17T15:27:39;15.60;99.90
10812;DHT22;5458;51.496;7.334;2022-09-17T15:32:34;15.60;99.90
10812;DHT22;5458;51.496;7.334;2022-09-17T15:37:52;15.60;99.90
10812;DHT22;5458;51.496;7.334;2022-09-17T15:45:45;15.30;98.70
10812;DHT22;5458;51.496;7.334;2022-09-17T15:48:34;15.20;98.80
10812;DHT22;5458;51.496;7.334;2022-09-17T15:51:03;15.20;98.70
10812;DHT22;5458;51.496;7.334;2022-09-17T15:53:34;15.10;98.20
10812;DHT22;5458;51.496;7.334;2022-09-17T15:58:28;14.90;97.40
10812;DHT22;5458;51.496;7.334;2022-09-17T16:08:50;15.10;98.40
10812;DHT22;5458;51.496;7.334;2022-09-17T16:11:21;15.10;98.60
10812;DHT22;5458;51.496;7.334;2022-09-17T16:13:48;15.10;97.90
10812;DHT22;5458;51.496;7.334;2022-09-17T16:16:16;15.10;97.90
10812;DHT22;5458;51.496;7.334;2022-09-17T16:18:42;15.10;97.80
10812;DHT22;5458;51.496;7.334;2022-09-17T16:21:19;15.20;97.60
10812;DHT22;5458;51.496;7.334;2022-09-17T16:23:45;15.20;97.10
10812;DHT22;5458;51.496;7.334;2022-09-17T16:26:19;15.10;97.50
10812;DHT22;5458;51.496;7.334;2022-09-17T16:28:47;14.90;97.60
10812;DHT22;5458;51.496;7.334;2022-09-17T16:31:13;14.90;97.70
10812;DHT22;5458;51.496;7.334;2022-09-17T16:33:39;15.00;98.70
10812;DHT22;5458;51.496;7.334;2022-09-17T16:36:06;15.00;98.70
10812;DHT22;5458;51.496;7.334;2022-09-17T16:38:32;14.90;98.90
10812;DHT22;5458;51.496;7.334;2022-09-17T16:40:58;14.90;99.00
10812;DHT22;5458;51.496;7.334;2022-09-17T16:43:23;14.80;99.30
10812;DHT22;5458;51.496;7.334;2022-09-17T16:48:24;14.60;99.90
10812;DHT22;5458;51.496;7.334;2022-09-17T16:50:50;14.50;99.90
10812;DHT22;5458;51.496;7.334;2022-09-17T16:53:15;14.50;99.90
10812;DHT22;5458;51.496;7.334;2022-09-17T16:55:41;14.40;99.90
10812;DHT22;5458;51.496;7.334;2022-09-17T16:58:06;14.40;99.90
10812;DHT22;5458;51.496;7.334;2022-09-17T17:00:32;14.40;99.90
10812;DHT22;5458;51.496;7.334;2022-09-17T17:02:58;14.30;99.90
10812;DHT22;5458;51.496;7.334;2022-09-17T17:05:25;14.20;99.90
10812;DHT22;5458;51.496;7.334;2022-09-17T17:07:51;14.10;99.90
10812;DHT22;5458;51.496;7.334;2022-09-17T17:10:19;14.00;99.90
10812;DHT22;5458;51.496;7.334;2022-09-17T17:12:45;14.00;99.90
10812;DHT22;5458;51.496;7.334;2022-09-17T17:15:11;14.00;99.90
10812;DHT22;5458;51.496;7.334;2022-09-17T17:17:37;14.00;99.90
10812;DHT22;5458;51.496;7.334;2022-09-17T17:20:05;14.00;99.90
10812;DHT22;5458;51.496;7.334;2022-09-17T17:22:33;14.00;99.90
10812;DHT22;5458;51.496;7.334;2022-09-17T17:24:58;14.00;99.90
10812;DHT22;5458;51.496;7.334;2022-09-17T17:27:24;14.00;99.90
10812;DHT22;5458;51.496;7.334;2022-09-17T17:29:49;14.00;99.90
10812;DHT22;5458;51.496;7.334;2022-09-17T17:32:16;13.90;99.90
10812;DHT22;5458;51.496;7.334;2022-09-17T17:34:41;13.90;99.90
10812;DHT22;5458;51.496;7.334;2022-09-17T17:37:07;13.80;99.90
10812;DHT22;5458;51.496;7.334;2022-09-17T17:39:32;13.80;99.90
10812;DHT22;5458;51.496;7.334;2022-09-17T17:41:58;13.80;99.90
10812;DHT22;5458;51.496;7.334;2022-09-17T17:44:23;13.80;99.90
10812;DHT22;5458;51.496;7.334;2022-09-17T17:46:49;13.80;99.90
10812;DHT22;5458;51.496;7.334;2022-09-17T17:49:15;13.80;99.90
10812;DHT22;5458;51.496;7.334;2022-09-17T17:51:40;13.70;99.90
10812;DHT22;5458;51.496;7.334;2022-09-17T17:54:06;13.70;99.90
10812;DHT22;5458;51.496;7.334;2022-09-17T17:56:32;13.60;99.90
10812;DHT22;5458;51.496;7.334;2022-09-17T17:58:58;13.60;99.90
10812;DHT22;5458;51.496;7.334;2022-09-17T18:01:28;13.50;99.90
10812;DHT22;5458;51.496;7.334;2022-09-17T18:04:02;13.60;99.90
10812;DHT22;5458;51.496;7.334;2022-09-17T18:06:28;13.50;99.90
10812;DHT22;5458;51.496;7.334;2022-09-17T18:08:54;13.50;99.90
10812;DHT22;5458;51.496;7.334;2022-09-17T18:11:21;13.50;99.90
10812;DHT22;5458;51.496;7.334;2022-09-17T18:13:54;13.50;99.90
10812;DHT22;5458;51.496;7.334;2022-09-17T18:16:20;13.50;99.90
10812;DHT22;5458;51.496;7.334;2022-09-17T18:18:46;13.50;99.90
10812;DHT22;5458;51.496;7.334;2022-09-17T18:21:17;13.50;99.90
10812;DHT22;5458;51.496;7.334;2022-09-17T18:23:44;13.50;99.90
10812;DHT22;5458;51.496;7.334;2022-09-17T18:26:13;13.50;99.90
10812;DHT22;5458;51.496;7.334;2022-09-17T18:28:39;13.50;99.90
10812;DHT22;5458;51.496;7.334;2022-09-17T18:31:18;13.50;99.90
10812;DHT22;5458;51.496;7.334;2022-09-17T18:33:44;13.50;99.90
10812;DHT22;5458;51.496;7.334;2022-09-17T18:36:10;13.50;99.90
10812;DHT22;5458;51.496;7.334;2022-09-17T18:38:36;13.50;99.90
10812;DHT22;5458;51.496;7.334;2022-09-17T18:41:09;13.50;99.90
10812;DHT22;5458;51.496;7.334;2022-09-17T18:43:35;13.50;99.90
10812;DHT22;5458;51.496;7.334;2022-09-17T18:46:01;13.50;99.90
10812;DHT22;5458;51.496;7.334;2022-09-17T18:48:28;13.50;99.90
10812;DHT22;5458;51.496;7.334;2022-09-17T18:51:05;13.50;99.90
10812;DHT22;5458;51.496;7.334;2022-09-17T18:53:36;13.50;99.90
10812;DHT22;5458;51.496;7.334;2022-09-17T18:58:36;13.60;99.90
10812;DHT22;5458;51.496;7.334;2022-09-17T19:01:05;13.70;99.90
10812;DHT22;5458;51.496;7.334;2022-09-17T19:03:31;13.60;99.90
10812;DHT22;5458;51.496;7.334;2022-09-17T19:06:06;13.60;99.90
10812;DHT22;5458;51.496;7.334;2022-09-17T19:08:32;13.60;99.90
10812;DHT22;5458;51.496;7.334;2022-09-17T19:10:58;13.60;99.90
10812;DHT22;5458;51.496;7.334;2022-09-17T19:13:25;13.60;99.90
10812;DHT22;5458;51.496;7.334;2022-09-17T19:15:51;13.60;99.90
10812;DHT22;5458;51.496;7.334;2022-09-17T19:18:16;13.50;99.90
10812;DHT22;5458;51.496;7.334;2022-09-17T19:20:43;13.60;99.90
10812;DHT22;5458;51.496;7.334;2022-09-17T19:23:08;13.60;99.90
10812;DHT22;5458;51.496;7.334;2022-09-17T19:25:35;13.60;99.90
10812;DHT22;5458;51.496;7.334;2022-09-17T19:28:02;13.60;99.90
10812;DHT22;5458;51.496;7.334;2022-09-17T19:30:27;13.60;99.90
10812;DHT22;5458;51.496;7.334;2022-09-17T19:32:55;13.60;99.90
10812;DHT22;5458;51.496;7.334;2022-09-17T19:35:22;13.60;99.90
10812;DHT22;5458;51.496;7.334;2022-09-17T19:37:48;13.60;99.90
10812;DHT22;5458;51.496;7.334;2022-09-17T19:40:15;13.60;99.90